createdAt,value
2022-11-15T06:32:40.194Z,3.26
2022-11-15T07:09:57.643Z,3.99
2022-11-15T07:13:19.699Z,3.95
2022-11-15T07:16:41.682Z,3.81
2022-11-15T07:20:03.229Z,3.67
2022-11-15T07:23:24.473Z,3.75
2022-11-15T07:26:45.494Z,3.80
2022-11-15T07:30:07.093Z,3.87
2022-11-15T07:33:28.485Z,3.73
2022-11-15T07:36:49.805Z,3.91
2022-11-15T07:40:12.439Z,3.87
2022-11-15T07:43:34.944Z,3.86
2022-11-15T07:46:56.094Z,3.84
2022-11-15T07:50:17.943Z,3.96
2022-11-15T07:54:07.783Z,4.08
2022-11-15T07:57:30.162Z,4.16
2022-11-15T08:00:51.248Z,4.26
2022-11-15T08:04:12.759Z,4.26
2022-11-15T08:07:34.098Z,4.28
2022-11-15T08:10:55.723Z,4.30
2022-11-15T08:14:16.799Z,4.54
2022-11-15T08:17:37.897Z,4.65
2022-11-15T08:21:03.178Z,4.54
2022-11-15T08:24:24.176Z,4.61
2022-11-15T08:27:46.036Z,4.86
2022-11-15T08:31:08.187Z,4.92
2022-11-15T08:34:30.107Z,4.96
2022-11-15T08:37:57.197Z,4.81
2022-11-15T08:41:33.078Z,4.99
2022-11-15T08:44:54.425Z,5.15
2022-11-15T08:48:15.310Z,5.35
2022-11-15T08:51:36.590Z,5.39
2022-11-15T08:54:59.355Z,5.43
2022-11-15T08:58:20.975Z,5.61
2022-11-15T09:01:42.350Z,5.58
2022-11-15T09:05:03.919Z,5.67
2022-11-15T09:08:46.553Z,5.89
2022-11-15T09:12:14.935Z,5.63
2022-11-15T09:15:36.228Z,5.78
2022-11-15T09:18:57.366Z,5.78
2022-11-15T09:22:18.246Z,6.00
2022-11-15T09:25:39.432Z,5.67
2022-11-15T09:29:02.374Z,6.03
2022-11-15T09:32:24.289Z,6.06
2022-11-15T09:35:45.455Z,6.15
2022-11-15T09:39:06.538Z,6.52
2022-11-15T09:42:58.588Z,6.65
2022-11-15T09:46:37.110Z,6.76
2022-11-15T09:50:21.365Z,7.05
2022-11-15T09:54:13.497Z,7.20
2022-11-15T09:57:19.638Z,7.28
2022-11-15T10:00:48.259Z,7.07
2022-11-15T10:03:52.502Z,7.51
2022-11-15T10:07:03.825Z,7.84
2022-11-15T10:10:40.180Z,7.64
2022-11-15T10:13:47.305Z,7.69
2022-11-15T10:17:19.152Z,7.80
2022-11-15T10:20:24.115Z,7.79
2022-11-15T10:23:28.720Z,7.94
2022-11-15T10:26:31.199Z,7.92
2022-11-15T10:29:34.477Z,7.75
2022-11-15T10:32:37.443Z,7.64
2022-11-15T10:35:40.159Z,7.57
2022-11-15T10:38:51.843Z,7.82
2022-11-15T10:41:55.419Z,7.66
2022-11-15T10:44:57.876Z,7.50
2022-11-15T10:48:15.534Z,7.20
2022-11-15T10:51:29.219Z,7.17
2022-11-15T10:54:37.166Z,7.14
2022-11-15T10:57:41.375Z,7.40
2022-11-15T11:00:47.937Z,7.59
2022-11-15T11:04:04.616Z,7.76
2022-11-15T11:07:21.965Z,7.75
2022-11-15T11:10:50.368Z,7.87
2022-11-15T11:13:50.163Z,8.02
2022-11-15T11:16:58.914Z,8.25
2022-11-15T11:20:19.942Z,8.10
2022-11-15T11:23:50.498Z,8.33
2022-11-15T11:27:18.772Z,8.65
2022-11-15T11:30:50.574Z,9.08
2022-11-15T11:34:08.068Z,9.73
2022-11-15T11:37:31.478Z,9.53
2022-11-15T11:40:46.133Z,9.90
2022-11-15T11:43:52.102Z,9.43
2022-11-15T11:47:01.862Z,9.42
2022-11-15T11:50:27.952Z,10.23
2022-11-15T11:53:49.049Z,11.09
2022-11-15T11:56:53.072Z,11.39
2022-11-15T12:00:03.150Z,10.86
2022-11-15T12:03:20.825Z,10.43
2022-11-15T12:06:48.437Z,10.10
2022-11-15T12:10:02.866Z,9.47
2022-11-15T12:13:12.074Z,9.08
2022-11-15T12:16:24.926Z,8.93
2022-11-15T12:19:29.768Z,8.66
2022-11-15T12:22:44.555Z,8.59
2022-11-15T12:25:52.771Z,8.63
2022-11-15T12:29:07.463Z,8.20
2022-11-15T12:32:37.007Z,8.31
2022-11-15T12:35:42.956Z,8.26
2022-11-15T12:39:03.937Z,8.30
2022-11-15T12:42:06.746Z,8.25
2022-11-15T12:45:45.973Z,8.09
2022-11-15T12:48:54.536Z,7.96
2022-11-15T12:52:00.010Z,7.90
2022-11-15T12:55:23.998Z,7.94
2022-11-15T12:58:43.635Z,7.92
2022-11-15T13:01:46.171Z,7.75
2022-11-15T13:04:50.265Z,7.69
2022-11-15T13:07:59.826Z,7.88
2022-11-15T13:11:41.297Z,7.80
2022-11-15T13:14:52.527Z,7.83
2022-11-15T13:17:57.749Z,7.88
2022-11-15T13:21:02.933Z,7.96
2022-11-15T13:24:11.173Z,7.87
2022-11-15T13:27:20.351Z,7.92
2022-11-15T13:30:26.231Z,7.88
2022-11-15T13:33:36.440Z,7.92
2022-11-15T13:36:39.110Z,7.83
2022-11-15T13:39:41.881Z,7.69
2022-11-15T13:42:46.010Z,7.63
2022-11-15T13:46:13.182Z,7.59
2022-11-15T13:49:15.567Z,7.58
2022-11-15T13:52:18.675Z,7.22
2022-11-15T13:55:23.781Z,7.19
2022-11-15T13:58:26.865Z,7.18
2022-11-15T14:01:32.692Z,7.28
2022-11-15T14:04:35.608Z,7.33
2022-11-15T14:07:41.833Z,7.27
2022-11-15T14:10:47.709Z,7.22
2022-11-15T14:14:08.492Z,7.43
2022-11-15T14:17:21.864Z,7.26
2022-11-15T14:20:29.510Z,7.18
2022-11-15T14:23:32.230Z,7.21
2022-11-15T14:26:35.883Z,7.21
2022-11-15T14:29:39.190Z,7.22
2022-11-15T14:32:48.873Z,7.29
2022-11-15T14:35:53.312Z,7.32
2022-11-15T14:38:56.010Z,7.26
2022-11-15T14:41:58.789Z,7.26
2022-11-15T14:45:01.379Z,7.20
2022-11-15T14:48:04.466Z,7.09
2022-11-15T14:51:25.402Z,7.09
2022-11-15T14:54:28.035Z,7.13
2022-11-15T14:57:31.108Z,7.04
2022-11-15T15:00:35.465Z,6.97
2022-11-15T15:03:38.198Z,6.96
2022-11-15T15:06:40.854Z,7.10
2022-11-15T15:09:44.112Z,7.01
2022-11-15T15:12:47.047Z,6.87
2022-11-15T15:15:50.636Z,6.80
2022-11-15T15:18:53.725Z,6.78
2022-11-15T15:21:56.066Z,6.89
2022-11-15T15:24:58.635Z,6.90
2022-11-15T15:28:01.372Z,6.89
2022-11-15T15:31:05.204Z,6.90
2022-11-15T15:34:12.132Z,6.96
2022-11-15T15:37:27.434Z,6.91
2022-11-15T15:40:32.257Z,6.78
2022-11-15T15:43:35.226Z,6.85
2022-11-15T15:46:37.633Z,6.81
2022-11-15T15:49:40.839Z,6.68
2022-11-15T15:52:43.538Z,6.66
2022-11-15T15:55:46.055Z,6.67
2022-11-15T15:58:49.098Z,6.70
2022-11-15T16:01:51.634Z,6.64
2022-11-15T16:04:54.244Z,6.67
2022-11-15T16:07:56.758Z,6.60
2022-11-15T16:11:00.116Z,6.63
2022-11-15T16:14:02.778Z,6.57
2022-11-15T16:17:05.272Z,6.57
2022-11-15T16:20:08.223Z,6.55
2022-11-15T16:23:15.891Z,6.40
2022-11-15T16:26:22.942Z,6.28
2022-11-15T16:29:25.517Z,6.36
2022-11-15T16:32:28.266Z,6.31
2022-11-15T16:35:31.072Z,6.38
2022-11-15T16:38:33.844Z,6.48
2022-11-15T16:41:36.950Z,6.47
2022-11-15T16:44:39.401Z,6.37
2022-11-15T16:47:42.091Z,6.42
2022-11-15T16:50:46.918Z,6.37
2022-11-15T16:53:50.098Z,6.38
2022-11-15T16:56:53.822Z,6.35
2022-11-15T16:59:56.634Z,6.36
2022-11-15T17:02:59.694Z,6.52
2022-11-15T17:06:02.150Z,6.52
2022-11-15T17:09:04.854Z,6.45
2022-11-15T17:12:08.941Z,6.45
2022-11-15T17:15:13.200Z,6.37
2022-11-15T17:18:15.797Z,6.39
2022-11-15T17:21:22.006Z,6.50
2022-11-15T17:24:24.815Z,6.41
2022-11-15T17:27:27.367Z,6.45
2022-11-15T17:30:30.526Z,6.36
2022-11-15T17:33:33.213Z,6.45
2022-11-15T17:36:36.234Z,6.40
2022-11-15T17:39:38.798Z,6.47
2022-11-15T17:42:42.264Z,6.48
2022-11-15T17:45:45.247Z,6.41
2022-11-15T17:48:48.858Z,6.44
2022-11-15T17:51:52.974Z,6.39
2022-11-15T17:54:55.370Z,6.44
2022-11-15T17:57:58.222Z,6.42
2022-11-15T18:01:07.826Z,6.40
2022-11-15T18:04:10.876Z,6.32
2022-11-15T18:07:14.132Z,6.32
2022-11-15T18:10:17.705Z,6.31
2022-11-15T18:13:20.141Z,6.37
2022-11-15T18:16:27.727Z,6.37
2022-11-15T18:19:30.379Z,6.32
2022-11-15T18:22:33.341Z,6.46
2022-11-15T18:25:35.784Z,6.43
2022-11-15T18:28:40.866Z,6.57
2022-11-15T18:31:47.536Z,6.41
2022-11-15T18:34:50.476Z,6.37
2022-11-15T18:37:55.523Z,6.45
2022-11-15T18:41:09.858Z,6.45
2022-11-15T18:44:12.719Z,6.37
2022-11-15T18:47:15.327Z,6.38
2022-11-15T18:50:17.921Z,6.52
2022-11-15T18:53:20.237Z,6.52
2022-11-15T18:56:24.573Z,6.62
2022-11-15T18:59:27.842Z,6.46
2022-11-15T19:02:30.479Z,6.44
2022-11-15T19:05:35.288Z,6.47
2022-11-15T19:08:38.702Z,6.51
2022-11-15T19:11:41.815Z,6.38
2022-11-15T19:14:44.378Z,6.53
2022-11-15T19:17:46.841Z,6.56
2022-11-15T19:20:50.533Z,6.48
2022-11-15T19:23:54.247Z,6.32
2022-11-15T19:26:57.080Z,6.23
2022-11-15T19:29:59.712Z,6.27
2022-11-15T19:33:02.442Z,6.28
2022-11-15T19:36:17.044Z,6.37
2022-11-15T19:39:20.082Z,6.41
2022-11-15T19:42:22.672Z,6.39
2022-11-15T19:45:25.730Z,6.40
2022-11-15T19:48:29.898Z,6.38
2022-11-15T19:51:33.093Z,6.26
2022-11-15T19:54:36.326Z,6.26
2022-11-15T19:57:38.962Z,6.40
2022-11-15T20:00:42.396Z,6.34
2022-11-15T20:03:50.225Z,6.29
2022-11-15T20:06:52.790Z,6.27
2022-11-15T20:09:55.574Z,6.35
2022-11-15T20:12:58.426Z,6.37
2022-11-15T20:16:01.232Z,6.39
2022-11-15T20:19:03.834Z,6.31
2022-11-15T20:22:06.766Z,6.28
2022-11-15T20:25:10.059Z,6.24
2022-11-15T20:28:21.169Z,6.26
2022-11-15T20:31:23.520Z,6.33
2022-11-15T20:34:26.210Z,6.32
2022-11-15T20:37:28.878Z,6.39
2022-11-15T20:40:33.050Z,6.34
2022-11-15T20:43:35.820Z,6.23
2022-11-15T20:46:38.654Z,6.19
2022-11-15T20:49:41.396Z,6.23
2022-11-15T20:52:44.840Z,6.22
2022-11-15T20:55:49.704Z,6.27
2022-11-15T20:58:53.641Z,6.22
2022-11-15T21:01:56.018Z,6.33
2022-11-15T21:04:59.165Z,6.23
2022-11-15T21:08:01.776Z,6.22
2022-11-15T21:11:27.115Z,6.22
2022-11-15T21:14:30.031Z,6.26
2022-11-15T21:17:32.437Z,6.26
2022-11-15T21:20:35.200Z,6.30
2022-11-15T21:23:38.146Z,6.22
2022-11-15T21:26:40.813Z,6.25
2022-11-15T21:29:45.756Z,6.31
2022-11-15T21:32:48.501Z,6.30
2022-11-15T21:35:52.002Z,6.23
2022-11-15T21:38:54.499Z,6.27
2022-11-15T21:41:57.234Z,6.40
2022-11-15T21:44:59.736Z,6.41
2022-11-15T21:48:02.524Z,6.39
2022-11-15T21:51:08.488Z,6.37
2022-11-15T21:54:11.197Z,6.44
2022-11-15T21:57:13.533Z,6.35
2022-11-15T22:00:36.122Z,6.37
2022-11-15T22:03:38.636Z,6.29
2022-11-15T22:06:41.423Z,6.30
2022-11-15T22:09:44.070Z,6.40
2022-11-15T22:12:47.077Z,6.35
2022-11-15T22:15:51.368Z,6.39
2022-11-15T22:18:54.306Z,6.39
2022-11-15T22:21:56.939Z,6.45
2022-11-15T22:25:00.162Z,6.51
2022-11-15T22:28:02.750Z,6.51
2022-11-15T22:31:06.458Z,6.46
2022-11-15T22:34:09.385Z,6.40
2022-11-15T22:37:20.492Z,6.38
2022-11-15T22:40:23.902Z,6.47
2022-11-15T22:43:27.676Z,6.47
2022-11-15T22:46:30.343Z,6.46
2022-11-15T22:49:33.030Z,6.47
2022-11-15T22:52:35.782Z,6.47
2022-11-15T22:55:39.646Z,6.53
2022-11-15T22:58:42.086Z,6.46
2022-11-15T23:01:45.014Z,6.55
2022-11-15T23:04:47.429Z,6.56
2022-11-15T23:07:50.114Z,6.59
2022-11-15T23:11:12.277Z,6.68
2022-11-15T23:14:34.685Z,6.68
2022-11-15T23:17:57.112Z,6.67
2022-11-15T23:21:43.744Z,6.56
2022-11-15T23:25:06.868Z,6.63
2022-11-15T23:28:09.727Z,6.62
2022-11-15T23:31:30.458Z,6.68
2022-11-15T23:34:37.025Z,6.71
2022-11-15T23:37:39.582Z,6.70
2022-11-15T23:40:42.693Z,6.74
2022-11-15T23:43:45.760Z,6.65
2022-11-15T23:46:48.505Z,6.57
2022-11-15T23:49:51.178Z,6.52
2022-11-15T23:52:53.729Z,6.63
2022-11-15T23:56:07.830Z,6.66
2022-11-15T23:59:10.758Z,6.66
